sensor_id;sensor_type;location;lat;lon;timestamp;P1;durP1;ratioP1;P2;durP2;ratioP2
76693;SDS011;69667;52.136;5.424;2023-09-12T00:02:18;22.25;;;10.32;;
76693;SDS011;69667;52.136;5.424;2023-09-12T00:04:46;18.55;;;9.00;;
76693;SDS011;69667;52.136;5.424;2023-09-12T00:07:17;20.77;;;9.88;;
76693;SDS011;69667;52.136;5.424;2023-09-12T00:09:46;18.55;;;9.45;;
76693;SDS011;69667;52.136;5.424;2023-09-12T00:12:15;19.77;;;9.65;;
76693;SDS011;69667;52.136;5.424;2023-09-12T00:14:43;18.92;;;9.95;;
76693;SDS011;69667;52.136;5.424;2023-09-12T00:17:11;23.17;;;10.40;;
76693;SDS011;69667;52.136;5.424;2023-09-12T00:19:40;17.00;;;9.73;;
76693;SDS011;69667;52.136;5.424;2023-09-12T00:22:08;19.98;;;9.52;;
76693;SDS011;69667;52.136;5.424;2023-09-12T00:24:36;21.63;;;9.38;;
76693;SDS011;69667;52.136;5.424;2023-09-12T00:29:33;19.00;;;9.13;;
76693;SDS011;69667;52.136;5.424;2023-09-12T00:32:01;18.35;;;9.57;;
76693;SDS011;69667;52.136;5.424;2023-09-12T00:34:29;16.23;;;8.38;;
76693;SDS011;69667;52.136;5.424;2023-09-12T00:39:26;17.17;;;8.95;;
76693;SDS011;69667;52.136;5.424;2023-09-12T00:41:54;19.95;;;9.50;;
76693;SDS011;69667;52.136;5.424;2023-09-12T00:44:22;20.30;;;9.82;;
76693;SDS011;69667;52.136;5.424;2023-09-12T00:46:50;19.65;;;9.55;;
76693;SDS011;69667;52.136;5.424;2023-09-12T00:49:21;17.10;;;7.50;;
76693;SDS011;69667;52.136;5.424;2023-09-12T00:54:18;16.92;;;8.85;;
76693;SDS011;69667;52.136;5.424;2023-09-12T00:56:47;16.00;;;7.63;;
76693;SDS011;69667;52.136;5.424;2023-09-12T00:59:15;24.05;;;9.30;;
76693;SDS011;69667;52.136;5.424;2023-09-12T01:01:46;23.65;;;9.02;;
76693;SDS011;69667;52.136;5.424;2023-09-12T01:04:15;19.45;;;9.55;;
76693;SDS011;69667;52.136;5.424;2023-09-12T01:07:00;19.05;;;8.63;;
76693;SDS011;69667;52.136;5.424;2023-09-12T01:09:30;19.05;;;8.48;;
76693;SDS011;69667;52.136;5.424;2023-09-12T01:12:02;18.35;;;8.98;;
76693;SDS011;69667;52.136;5.424;2023-09-12T01:14:30;15.52;;;8.20;;
76693;SDS011;69667;52.136;5.424;2023-09-12T01:16:58;20.10;;;9.50;;
76693;SDS011;69667;52.136;5.424;2023-09-12T01:19:30;16.25;;;8.35;;
76693;SDS011;69667;52.136;5.424;2023-09-12T01:27:39;18.15;;;9.68;;
76693;SDS011;69667;52.136;5.424;2023-09-12T01:30:12;17.90;;;9.20;;
76693;SDS011;69667;52.136;5.424;2023-09-12T01:32:44;16.73;;;8.45;;
76693;SDS011;69667;52.136;5.424;2023-09-12T01:35:13;17.27;;;8.32;;
76693;SDS011;69667;52.136;5.424;2023-09-12T01:37:41;18.42;;;8.73;;
76693;SDS011;69667;52.136;5.424;2023-09-12T01:40:09;19.38;;;9.10;;
76693;SDS011;69667;52.136;5.424;2023-09-12T01:42:42;16.92;;;8.60;;
76693;SDS011;69667;52.136;5.424;2023-09-12T01:45:16;17.40;;;8.10;;
76693;SDS011;69667;52.136;5.424;2023-09-12T01:47:50;17.33;;;8.57;;
76693;SDS011;69667;52.136;5.424;2023-09-12T01:50:19;15.32;;;8.95;;
76693;SDS011;69667;52.136;5.424;2023-09-12T01:52:48;17.20;;;8.63;;
76693;SDS011;69667;52.136;5.424;2023-09-12T01:55:17;15.57;;;8.38;;
76693;SDS011;69667;52.136;5.424;2023-09-12T01:57:46;16.35;;;8.45;;
76693;SDS011;69667;52.136;5.424;2023-09-12T02:00:16;14.80;;;8.23;;
76693;SDS011;69667;52.136;5.424;2023-09-12T02:02:47;17.52;;;7.65;;
76693;SDS011;69667;52.136;5.424;2023-09-12T02:05:17;14.10;;;8.18;;
76693;SDS011;69667;52.136;5.424;2023-09-12T02:07:47;13.10;;;7.22;;
76693;SDS011;69667;52.136;5.424;2023-09-12T02:10:16;14.30;;;7.82;;
76693;SDS011;69667;52.136;5.424;2023-09-12T02:12:44;14.93;;;7.47;;
76693;SDS011;69667;52.136;5.424;2023-09-12T02:15:12;16.67;;;7.97;;
76693;SDS011;69667;52.136;5.424;2023-09-12T02:17:43;16.63;;;8.07;;
76693;SDS011;69667;52.136;5.424;2023-09-12T02:20:11;15.32;;;8.70;;
76693;SDS011;69667;52.136;5.424;2023-09-12T02:22:39;15.18;;;8.75;;
76693;SDS011;69667;52.136;5.424;2023-09-12T02:25:08;16.33;;;8.27;;
76693;SDS011;69667;52.136;5.424;2023-09-12T02:27:36;13.18;;;6.68;;
76693;SDS011;69667;52.136;5.424;2023-09-12T02:30:05;13.27;;;6.95;;
76693;SDS011;69667;52.136;5.424;2023-09-12T02:32:34;13.77;;;6.97;;
76693;SDS011;69667;52.136;5.424;2023-09-12T02:35:02;12.00;;;6.60;;
76693;SDS011;69667;52.136;5.424;2023-09-12T02:37:30;10.40;;;5.93;;
76693;SDS011;69667;52.136;5.424;2023-09-12T02:39:59;13.82;;;6.63;;
76693;SDS011;69667;52.136;5.424;2023-09-12T02:42:27;13.82;;;6.55;;
76693;SDS011;69667;52.136;5.424;2023-09-12T02:44:55;12.60;;;6.75;;
76693;SDS011;69667;52.136;5.424;2023-09-12T02:47:24;13.13;;;7.25;;
76693;SDS011;69667;52.136;5.424;2023-09-12T02:49:52;12.57;;;7.53;;
76693;SDS011;69667;52.136;5.424;2023-09-12T02:52:20;11.15;;;6.80;;
76693;SDS011;69667;52.136;5.424;2023-09-12T02:54:48;15.80;;;6.82;;
76693;SDS011;69667;52.136;5.424;2023-09-12T02:57:16;10.68;;;6.55;;
76693;SDS011;69667;52.136;5.424;2023-09-12T02:59:45;10.65;;;6.15;;
76693;SDS011;69667;52.136;5.424;2023-09-12T03:02:13;10.57;;;6.35;;
76693;SDS011;69667;52.136;5.424;2023-09-12T03:04:41;13.68;;;6.82;;
76693;SDS011;69667;52.136;5.424;2023-09-12T03:07:10;10.48;;;5.88;;
76693;SDS011;69667;52.136;5.424;2023-09-12T03:09:38;13.02;;;6.57;;
76693;SDS011;69667;52.136;5.424;2023-09-12T03:12:07;12.73;;;6.88;;
76693;SDS011;69667;52.136;5.424;2023-09-12T03:14:36;11.63;;;6.60;;
76693;SDS011;69667;52.136;5.424;2023-09-12T03:17:04;12.02;;;6.57;;
76693;SDS011;69667;52.136;5.424;2023-09-12T03:19:33;9.75;;;6.32;;
76693;SDS011;69667;52.136;5.424;2023-09-12T03:24:30;11.18;;;6.38;;
76693;SDS011;69667;52.136;5.424;2023-09-12T03:26:58;11.00;;;6.72;;
76693;SDS011;69667;52.136;5.424;2023-09-12T03:29:27;13.43;;;7.55;;
76693;SDS011;69667;52.136;5.424;2023-09-12T03:31:55;15.98;;;7.70;;
76693;SDS011;69667;52.136;5.424;2023-09-12T03:34:23;12.50;;;6.80;;
76693;SDS011;69667;52.136;5.424;2023-09-12T03:36:51;15.45;;;7.40;;
76693;SDS011;69667;52.136;5.424;2023-09-12T03:39:20;11.57;;;6.50;;
76693;SDS011;69667;52.136;5.424;2023-09-12T03:41:48;12.90;;;6.35;;
76693;SDS011;69667;52.136;5.424;2023-09-12T03:44:16;15.45;;;7.55;;
76693;SDS011;69667;52.136;5.424;2023-09-12T03:46:45;14.43;;;6.80;;
76693;SDS011;69667;52.136;5.424;2023-09-12T03:49:13;11.85;;;7.10;;
76693;SDS011;69667;52.136;5.424;2023-09-12T03:51:41;14.25;;;7.35;;
76693;SDS011;69667;52.136;5.424;2023-09-12T03:54:10;23.13;;;8.13;;
76693;SDS011;69667;52.136;5.424;2023-09-12T03:56:39;13.95;;;6.43;;
76693;SDS011;69667;52.136;5.424;2023-09-12T03:59:10;16.58;;;7.75;;
76693;SDS011;69667;52.136;5.424;2023-09-12T04:01:39;13.80;;;6.72;;
76693;SDS011;69667;52.136;5.424;2023-09-12T04:04:07;18.40;;;8.55;;
76693;SDS011;69667;52.136;5.424;2023-09-12T04:06:35;14.55;;;7.63;;
76693;SDS011;69667;52.136;5.424;2023-09-12T04:09:04;13.30;;;6.82;;
76693;SDS011;69667;52.136;5.424;2023-09-12T04:11:33;12.95;;;7.05;;
76693;SDS011;69667;52.136;5.424;2023-09-12T04:14:16;14.52;;;7.35;;
76693;SDS011;69667;52.136;5.424;2023-09-12T04:16:44;14.05;;;7.63;;
76693;SDS011;69667;52.136;5.424;2023-09-12T04:21:41;10.23;;;6.13;;
76693;SDS011;69667;52.136;5.424;2023-09-12T04:24:09;13.77;;;6.95;;
76693;SDS011;69667;52.136;5.424;2023-09-12T04:26:38;15.55;;;7.07;;
76693;SDS011;69667;52.136;5.424;2023-09-12T04:29:06;15.57;;;7.78;;
76693;SDS011;69667;52.136;5.424;2023-09-12T04:31:35;17.10;;;8.35;;
76693;SDS011;69667;52.136;5.424;2023-09-12T04:34:03;16.38;;;7.88;;
76693;SDS011;69667;52.136;5.424;2023-09-12T04:36:33;13.65;;;7.28;;
76693;SDS011;69667;52.136;5.424;2023-09-12T04:39:01;11.55;;;6.43;;
76693;SDS011;69667;52.136;5.424;2023-09-12T04:41:29;13.65;;;6.85;;
76693;SDS011;69667;52.136;5.424;2023-09-12T04:43:57;13.88;;;7.47;;
76693;SDS011;69667;52.136;5.424;2023-09-12T04:46:27;14.18;;;7.57;;
76693;SDS011;69667;52.136;5.424;2023-09-12T04:48:56;15.95;;;8.07;;
76693;SDS011;69667;52.136;5.424;2023-09-12T04:51:24;15.23;;;8.02;;
76693;SDS011;69667;52.136;5.424;2023-09-12T04:53:54;14.52;;;6.65;;
76693;SDS011;69667;52.136;5.424;2023-09-12T04:56:23;15.82;;;7.72;;
76693;SDS011;69667;52.136;5.424;2023-09-12T04:58:51;19.67;;;7.70;;
76693;SDS011;69667;52.136;5.424;2023-09-12T05:01:20;15.80;;;7.82;;
76693;SDS011;69667;52.136;5.424;2023-09-12T05:03:48;14.07;;;7.75;;
76693;SDS011;69667;52.136;5.424;2023-09-12T05:06:16;13.18;;;7.47;;
76693;SDS011;69667;52.136;5.424;2023-09-12T05:08:45;16.52;;;8.00;;
76693;SDS011;69667;52.136;5.424;2023-09-12T05:11:13;18.00;;;7.93;;
76693;SDS011;69667;52.136;5.424;2023-09-12T05:13:42;13.73;;;7.22;;
76693;SDS011;69667;52.136;5.424;2023-09-12T05:16:10;17.23;;;8.52;;
76693;SDS011;69667;52.136;5.424;2023-09-12T05:18:39;14.30;;;7.57;;
76693;SDS011;69667;52.136;5.424;2023-09-12T05:21:07;12.82;;;7.68;;
76693;SDS011;69667;52.136;5.424;2023-09-12T05:23:36;13.15;;;7.50;;
76693;SDS011;69667;52.136;5.424;2023-09-12T05:26:04;14.88;;;7.55;;
76693;SDS011;69667;52.136;5.424;2023-09-12T05:28:33;13.40;;;6.85;;
76693;SDS011;69667;52.136;5.424;2023-09-12T05:31:02;12.88;;;7.00;;
76693;SDS011;69667;52.136;5.424;2023-09-12T05:33:32;14.50;;;7.78;;
76693;SDS011;69667;52.136;5.424;2023-09-12T05:36:01;15.73;;;7.40;;
76693;SDS011;69667;52.136;5.424;2023-09-12T05:38:30;16.80;;;7.97;;
76693;SDS011;69667;52.136;5.424;2023-09-12T05:40:58;18.80;;;8.02;;
76693;SDS011;69667;52.136;5.424;2023-09-12T05:43:26;17.35;;;8.18;;
76693;SDS011;69667;52.136;5.424;2023-09-12T05:45:55;16.02;;;7.68;;
76693;SDS011;69667;52.136;5.424;2023-09-12T05:48:25;16.73;;;8.10;;
76693;SDS011;69667;52.136;5.424;2023-09-12T05:50:53;14.23;;;7.45;;
76693;SDS011;69667;52.136;5.424;2023-09-12T05:53:22;16.25;;;8.10;;
76693;SDS011;69667;52.136;5.424;2023-09-12T05:55:51;15.75;;;7.60;;
76693;SDS011;69667;52.136;5.424;2023-09-12T05:58:19;20.00;;;8.13;;
76693;SDS011;69667;52.136;5.424;2023-09-12T06:00:48;18.83;;;9.40;;
76693;SDS011;69667;52.136;5.424;2023-09-12T06:03:16;16.10;;;7.50;;
76693;SDS011;69667;52.136;5.424;2023-09-12T06:05:45;18.73;;;9.20;;
76693;SDS011;69667;52.136;5.424;2023-09-12T06:08:13;19.17;;;8.85;;
76693;SDS011;69667;52.136;5.424;2023-09-12T06:10:41;18.23;;;9.43;;
76693;SDS011;69667;52.136;5.424;2023-09-12T06:13:10;17.50;;;8.52;;
76693;SDS011;69667;52.136;5.424;2023-09-12T06:15:39;19.00;;;9.55;;
76693;SDS011;69667;52.136;5.424;2023-09-12T06:18:08;23.13;;;10.30;;
76693;SDS011;69667;52.136;5.424;2023-09-12T06:20:37;24.40;;;11.68;;
76693;SDS011;69667;52.136;5.424;2023-09-12T06:23:05;20.80;;;9.90;;
76693;SDS011;69667;52.136;5.424;2023-09-12T06:25:34;23.52;;;10.20;;
76693;SDS011;69667;52.136;5.424;2023-09-12T06:28:02;22.92;;;10.68;;
76693;SDS011;69667;52.136;5.424;2023-09-12T06:30:31;25.58;;;11.20;;
76693;SDS011;69667;52.136;5.424;2023-09-12T06:32:59;23.25;;;10.90;;
76693;SDS011;69667;52.136;5.424;2023-09-12T06:35:27;23.52;;;10.18;;
76693;SDS011;69667;52.136;5.424;2023-09-12T06:37:56;24.33;;;10.40;;
76693;SDS011;69667;52.136;5.424;2023-09-12T06:40:24;20.48;;;9.45;;
76693;SDS011;69667;52.136;5.424;2023-09-12T06:42:52;25.00;;;11.00;;
76693;SDS011;69667;52.136;5.424;2023-09-12T06:45:21;20.10;;;10.18;;
76693;SDS011;69667;52.136;5.424;2023-09-12T06:47:49;25.67;;;11.27;;
76693;SDS011;69667;52.136;5.424;2023-09-12T06:50:17;25.60;;;11.27;;
76693;SDS011;69667;52.136;5.424;2023-09-12T06:52:46;21.48;;;9.70;;
76693;SDS011;69667;52.136;5.424;2023-09-12T06:55:14;22.10;;;11.13;;
76693;SDS011;69667;52.136;5.424;2023-09-12T06:57:42;23.65;;;10.38;;
76693;SDS011;69667;52.136;5.424;2023-09-12T07:00:11;26.35;;;11.82;;
76693;SDS011;69667;52.136;5.424;2023-09-12T07:02:40;26.77;;;11.82;;
76693;SDS011;69667;52.136;5.424;2023-09-12T07:05:08;27.70;;;11.68;;
76693;SDS011;69667;52.136;5.424;2023-09-12T07:07:36;23.63;;;10.98;;
76693;SDS011;69667;52.136;5.424;2023-09-12T07:10:05;29.27;;;10.85;;
76693;SDS011;69667;52.136;5.424;2023-09-12T07:12:50;27.30;;;11.65;;
76693;SDS011;69667;52.136;5.424;2023-09-12T07:17:46;20.95;;;10.35;;
76693;SDS011;69667;52.136;5.424;2023-09-12T07:20:15;23.42;;;9.90;;
76693;SDS011;69667;52.136;5.424;2023-09-12T07:22:45;24.92;;;11.07;;
76693;SDS011;69667;52.136;5.424;2023-09-12T07:25:13;22.67;;;10.95;;
76693;SDS011;69667;52.136;5.424;2023-09-12T07:27:42;23.98;;;10.75;;
76693;SDS011;69667;52.136;5.424;2023-09-12T07:30:10;21.50;;;9.95;;
76693;SDS011;69667;52.136;5.424;2023-09-12T07:32:39;21.55;;;10.95;;
76693;SDS011;69667;52.136;5.424;2023-09-12T07:35:07;23.88;;;11.38;;
76693;SDS011;69667;52.136;5.424;2023-09-12T07:37:35;24.88;;;11.38;;
76693;SDS011;69667;52.136;5.424;2023-09-12T07:40:04;20.52;;;10.23;;
76693;SDS011;69667;52.136;5.424;2023-09-12T07:42:37;24.13;;;11.65;;
76693;SDS011;69667;52.136;5.424;2023-09-12T07:45:05;24.70;;;10.57;;
76693;SDS011;69667;52.136;5.424;2023-09-12T07:47:34;22.05;;;9.73;;
76693;SDS011;69667;52.136;5.424;2023-09-12T07:50:03;24.13;;;10.15;;
76693;SDS011;69667;52.136;5.424;2023-09-12T07:52:33;23.60;;;11.23;;
76693;SDS011;69667;52.136;5.424;2023-09-12T07:55:02;21.25;;;10.65;;
76693;SDS011;69667;52.136;5.424;2023-09-12T07:57:31;21.98;;;10.85;;
76693;SDS011;69667;52.136;5.424;2023-09-12T08:00:01;28.13;;;11.23;;
76693;SDS011;69667;52.136;5.424;2023-09-12T08:02:37;19.30;;;9.70;;
76693;SDS011;69667;52.136;5.424;2023-09-12T08:07:35;20.88;;;9.27;;
76693;SDS011;69667;52.136;5.424;2023-09-12T08:10:04;18.83;;;9.00;;
76693;SDS011;69667;52.136;5.424;2023-09-12T08:12:33;18.58;;;8.75;;
76693;SDS011;69667;52.136;5.424;2023-09-12T08:15:05;18.88;;;9.35;;
76693;SDS011;69667;52.136;5.424;2023-09-12T08:17:34;17.38;;;8.30;;
76693;SDS011;69667;52.136;5.424;2023-09-12T08:20:03;19.77;;;8.73;;
76693;SDS011;69667;52.136;5.424;2023-09-12T08:22:32;18.98;;;8.27;;
76693;SDS011;69667;52.136;5.424;2023-09-12T08:25:00;18.35;;;8.60;;
76693;SDS011;69667;52.136;5.424;2023-09-12T08:27:28;19.45;;;8.68;;
76693;SDS011;69667;52.136;5.424;2023-09-12T08:29:57;19.42;;;8.73;;
76693;SDS011;69667;52.136;5.424;2023-09-12T08:32:25;17.98;;;8.32;;
76693;SDS011;69667;52.136;5.424;2023-09-12T08:34:53;15.90;;;8.38;;
76693;SDS011;69667;52.136;5.424;2023-09-12T08:37:21;19.10;;;8.38;;
76693;SDS011;69667;52.136;5.424;2023-09-12T08:39:49;16.58;;;7.43;;
76693;SDS011;69667;52.136;5.424;2023-09-12T08:42:26;20.52;;;9.07;;
76693;SDS011;69667;52.136;5.424;2023-09-12T08:44:55;17.40;;;8.70;;
76693;SDS011;69667;52.136;5.424;2023-09-12T08:47:23;15.13;;;7.88;;
76693;SDS011;69667;52.136;5.424;2023-09-12T08:49:54;17.20;;;7.85;;
76693;SDS011;69667;52.136;5.424;2023-09-12T08:54:50;17.80;;;7.88;;
76693;SDS011;69667;52.136;5.424;2023-09-12T08:59:47;19.33;;;7.32;;
76693;SDS011;69667;52.136;5.424;2023-09-12T09:02:16;19.80;;;8.43;;
76693;SDS011;69667;52.136;5.424;2023-09-12T09:04:45;17.63;;;7.78;;
76693;SDS011;69667;52.136;5.424;2023-09-12T09:07:17;17.65;;;8.13;;
76693;SDS011;69667;52.136;5.424;2023-09-12T09:09:47;20.13;;;8.25;;
76693;SDS011;69667;52.136;5.424;2023-09-12T09:12:19;13.68;;;7.22;;
76693;SDS011;69667;52.136;5.424;2023-09-12T09:14:47;15.00;;;7.80;;
76693;SDS011;69667;52.136;5.424;2023-09-12T09:20:00;13.32;;;7.03;;
76693;SDS011;69667;52.136;5.424;2023-09-12T09:22:29;15.20;;;8.13;;
76693;SDS011;69667;52.136;5.424;2023-09-12T09:27:38;15.52;;;8.02;;
76693;SDS011;69667;52.136;5.424;2023-09-12T09:30:07;16.42;;;7.88;;
76693;SDS011;69667;52.136;5.424;2023-09-12T09:32:36;15.13;;;8.45;;
76693;SDS011;69667;52.136;5.424;2023-09-12T09:35:04;16.63;;;8.52;;
76693;SDS011;69667;52.136;5.424;2023-09-12T09:37:34;17.45;;;10.25;;
76693;SDS011;69667;52.136;5.424;2023-09-12T09:40:04;15.00;;;9.02;;
76693;SDS011;69667;52.136;5.424;2023-09-12T09:42:34;17.63;;;9.45;;
76693;SDS011;69667;52.136;5.424;2023-09-12T09:45:02;17.95;;;9.93;;
76693;SDS011;69667;52.136;5.424;2023-09-12T09:47:30;18.30;;;10.15;;
76693;SDS011;69667;52.136;5.424;2023-09-12T09:49:59;16.67;;;9.85;;
76693;SDS011;69667;52.136;5.424;2023-09-12T09:52:28;16.10;;;8.73;;
76693;SDS011;69667;52.136;5.424;2023-09-12T09:54:56;21.48;;;10.35;;
76693;SDS011;69667;52.136;5.424;2023-09-12T09:57:25;18.80;;;10.23;;
76693;SDS011;69667;52.136;5.424;2023-09-12T09:59:54;20.23;;;10.32;;
76693;SDS011;69667;52.136;5.424;2023-09-12T10:02:22;16.77;;;8.93;;
76693;SDS011;69667;52.136;5.424;2023-09-12T10:04:54;21.98;;;10.10;;
76693;SDS011;69667;52.136;5.424;2023-09-12T10:07:27;19.98;;;10.20;;
76693;SDS011;69667;52.136;5.424;2023-09-12T10:10:00;22.50;;;10.18;;
76693;SDS011;69667;52.136;5.424;2023-09-12T10:12:30;18.77;;;9.50;;
76693;SDS011;69667;52.136;5.424;2023-09-12T10:15:01;18.45;;;10.10;;
76693;SDS011;69667;52.136;5.424;2023-09-12T10:17:35;19.92;;;9.85;;
76693;SDS011;69667;52.136;5.424;2023-09-12T10:20:07;21.13;;;10.40;;
76693;SDS011;69667;52.136;5.424;2023-09-12T10:22:46;22.63;;;10.73;;
76693;SDS011;69667;52.136;5.424;2023-09-12T10:25:27;17.88;;;9.07;;
76693;SDS011;69667;52.136;5.424;2023-09-12T10:27:56;18.33;;;9.13;;
76693;SDS011;69667;52.136;5.424;2023-09-12T10:30:25;24.67;;;9.38;;
76693;SDS011;69667;52.136;5.424;2023-09-12T10:32:54;20.25;;;9.68;;
76693;SDS011;69667;52.136;5.424;2023-09-12T10:35:23;17.33;;;8.90;;
76693;SDS011;69667;52.136;5.424;2023-09-12T10:40:21;14.13;;;8.07;;
76693;SDS011;69667;52.136;5.424;2023-09-12T10:42:50;13.70;;;7.93;;
76693;SDS011;69667;52.136;5.424;2023-09-12T10:45:21;17.63;;;8.77;;
76693;SDS011;69667;52.136;5.424;2023-09-12T10:47:50;15.90;;;8.32;;
76693;SDS011;69667;52.136;5.424;2023-09-12T10:50:19;15.48;;;8.23;;
76693;SDS011;69667;52.136;5.424;2023-09-12T10:52:48;13.52;;;7.00;;
76693;SDS011;69667;52.136;5.424;2023-09-12T10:55:16;13.27;;;7.80;;
76693;SDS011;69667;52.136;5.424;2023-09-12T11:01:21;15.10;;;7.95;;
76693;SDS011;69667;52.136;5.424;2023-09-12T11:03:51;14.93;;;8.32;;
76693;SDS011;69667;52.136;5.424;2023-09-12T11:06:21;13.57;;;6.93;;
76693;SDS011;69667;52.136;5.424;2023-09-12T11:09:15;14.82;;;9.18;;
76693;SDS011;69667;52.136;5.424;2023-09-12T11:11:46;14.70;;;8.27;;
76693;SDS011;69667;52.136;5.424;2023-09-12T11:14:15;12.43;;;7.70;;
76693;SDS011;69667;52.136;5.424;2023-09-12T11:17:18;13.73;;;7.57;;
76693;SDS011;69667;52.136;5.424;2023-09-12T11:19:44;14.35;;;7.55;;
76693;SDS011;69667;52.136;5.424;2023-09-12T11:22:26;15.18;;;7.45;;
76693;SDS011;69667;52.136;5.424;2023-09-12T11:24:55;13.43;;;8.07;;
76693;SDS011;69667;52.136;5.424;2023-09-12T11:27:25;10.75;;;6.32;;
76693;SDS011;69667;52.136;5.424;2023-09-12T11:30:19;9.82;;;5.35;;
76693;SDS011;69667;52.136;5.424;2023-09-12T11:33:05;10.63;;;6.25;;
76693;SDS011;69667;52.136;5.424;2023-09-12T11:35:38;13.50;;;7.70;;
76693;SDS011;69667;52.136;5.424;2023-09-12T11:38:10;10.85;;;6.43;;
76693;SDS011;69667;52.136;5.424;2023-09-12T11:45:35;12.50;;;7.22;;
76693;SDS011;69667;52.136;5.424;2023-09-12T11:48:11;12.02;;;6.60;;
76693;SDS011;69667;52.136;5.424;2023-09-12T11:50:39;14.50;;;7.40;;
76693;SDS011;69667;52.136;5.424;2023-09-12T11:53:09;12.70;;;6.60;;
76693;SDS011;69667;52.136;5.424;2023-09-12T11:55:45;13.68;;;6.97;;
76693;SDS011;69667;52.136;5.424;2023-09-12T11:58:15;11.50;;;6.45;;
76693;SDS011;69667;52.136;5.424;2023-09-12T12:00:48;14.02;;;6.70;;
76693;SDS011;69667;52.136;5.424;2023-09-12T12:05:47;12.18;;;6.55;;
76693;SDS011;69667;52.136;5.424;2023-09-12T12:08:16;10.85;;;5.75;;
76693;SDS011;69667;52.136;5.424;2023-09-12T12:10:51;13.48;;;6.53;;
76693;SDS011;69667;52.136;5.424;2023-09-12T12:13:21;11.65;;;6.10;;
76693;SDS011;69667;52.136;5.424;2023-09-12T12:15:50;12.00;;;5.80;;
76693;SDS011;69667;52.136;5.424;2023-09-12T12:18:19;12.10;;;4.97;;
76693;SDS011;69667;52.136;5.424;2023-09-12T12:20:47;9.50;;;4.97;;
76693;SDS011;69667;52.136;5.424;2023-09-12T12:23:16;9.77;;;5.63;;
76693;SDS011;69667;52.136;5.424;2023-09-12T12:25:44;11.27;;;5.05;;
76693;SDS011;69667;52.136;5.424;2023-09-12T12:28:12;9.32;;;5.80;;
76693;SDS011;69667;52.136;5.424;2023-09-12T12:33:09;12.27;;;5.30;;
76693;SDS011;69667;52.136;5.424;2023-09-12T12:36:03;8.95;;;4.38;;
76693;SDS011;69667;52.136;5.424;2023-09-12T12:38:35;12.57;;;6.72;;
76693;SDS011;69667;52.136;5.424;2023-09-12T12:41:25;6.43;;;4.22;;
76693;SDS011;69667;52.136;5.424;2023-09-12T12:44:09;9.70;;;4.68;;
76693;SDS011;69667;52.136;5.424;2023-09-12T12:46:50;8.32;;;4.80;;
76693;SDS011;69667;52.136;5.424;2023-09-12T12:49:21;8.88;;;4.70;;
76693;SDS011;69667;52.136;5.424;2023-09-12T12:51:50;10.75;;;5.30;;
76693;SDS011;69667;52.136;5.424;2023-09-12T12:54:23;9.88;;;4.57;;
76693;SDS011;69667;52.136;5.424;2023-09-12T12:56:51;8.35;;;3.65;;
76693;SDS011;69667;52.136;5.424;2023-09-12T12:59:20;5.32;;;3.70;;
76693;SDS011;69667;52.136;5.424;2023-09-12T13:01:48;6.78;;;3.50;;
76693;SDS011;69667;52.136;5.424;2023-09-12T13:04:19;5.13;;;3.20;;
76693;SDS011;69667;52.136;5.424;2023-09-12T13:06:47;4.57;;;2.95;;
76693;SDS011;69667;52.136;5.424;2023-09-12T13:09:16;7.93;;;3.28;;
76693;SDS011;69667;52.136;5.424;2023-09-12T13:11:45;5.18;;;3.13;;
76693;SDS011;69667;52.136;5.424;2023-09-12T13:14:13;4.88;;;3.00;;
76693;SDS011;69667;52.136;5.424;2023-09-12T13:16:41;4.80;;;2.97;;
76693;SDS011;69667;52.136;5.424;2023-09-12T13:19:10;6.93;;;3.25;;
76693;SDS011;69667;52.136;5.424;2023-09-12T13:21:39;4.90;;;2.80;;
76693;SDS011;69667;52.136;5.424;2023-09-12T13:24:09;4.80;;;2.88;;
76693;SDS011;69667;52.136;5.424;2023-09-12T13:26:38;5.32;;;3.13;;
76693;SDS011;69667;52.136;5.424;2023-09-12T13:29:07;4.40;;;2.60;;
76693;SDS011;69667;52.136;5.424;2023-09-12T13:31:35;6.28;;;2.88;;
76693;SDS011;69667;52.136;5.424;2023-09-12T13:34:04;5.72;;;2.78;;
76693;SDS011;69667;52.136;5.424;2023-09-12T13:36:32;6.53;;;3.45;;
76693;SDS011;69667;52.136;5.424;2023-09-12T13:39:01;7.53;;;3.70;;
76693;SDS011;69667;52.136;5.424;2023-09-12T13:41:29;6.75;;;3.40;;
76693;SDS011;69667;52.136;5.424;2023-09-12T13:43:58;4.55;;;2.30;;
76693;SDS011;69667;52.136;5.424;2023-09-12T13:46:26;4.03;;;2.00;;
76693;SDS011;69667;52.136;5.424;2023-09-12T13:48:54;3.10;;;1.85;;
76693;SDS011;69667;52.136;5.424;2023-09-12T13:51:27;4.15;;;1.80;;
76693;SDS011;69667;52.136;5.424;2023-09-12T13:53:55;3.03;;;1.77;;
76693;SDS011;69667;52.136;5.424;2023-09-12T13:56:24;3.78;;;1.83;;
76693;SDS011;69667;52.136;5.424;2023-09-12T13:58:52;3.10;;;1.80;;
76693;SDS011;69667;52.136;5.424;2023-09-12T14:01:21;3.22;;;2.03;;
76693;SDS011;69667;52.136;5.424;2023-09-12T14:04:02;5.07;;;2.72;;
76693;SDS011;69667;52.136;5.424;2023-09-12T14:06:32;6.00;;;2.33;;
76693;SDS011;69667;52.136;5.424;2023-09-12T14:09:03;5.80;;;2.80;;
76693;SDS011;69667;52.136;5.424;2023-09-12T14:11:31;6.55;;;2.70;;
76693;SDS011;69667;52.136;5.424;2023-09-12T14:14:03;6.50;;;3.45;;
76693;SDS011;69667;52.136;5.424;2023-09-12T14:16:35;6.70;;;3.28;;
76693;SDS011;69667;52.136;5.424;2023-09-12T14:19:03;5.80;;;3.05;;
76693;SDS011;69667;52.136;5.424;2023-09-12T14:21:33;6.45;;;3.50;;
76693;SDS011;69667;52.136;5.424;2023-09-12T14:24:02;6.85;;;3.35;;
76693;SDS011;69667;52.136;5.424;2023-09-12T14:26:32;6.18;;;3.40;;
76693;SDS011;69667;52.136;5.424;2023-09-12T14:29:00;7.80;;;3.95;;
76693;SDS011;69667;52.136;5.424;2023-09-12T14:31:29;7.55;;;3.80;;
76693;SDS011;69667;52.136;5.424;2023-09-12T14:33:57;8.27;;;4.20;;
76693;SDS011;69667;52.136;5.424;2023-09-12T14:36:26;8.82;;;3.90;;
76693;SDS011;69667;52.136;5.424;2023-09-12T14:41:22;7.97;;;3.60;;
76693;SDS011;69667;52.136;5.424;2023-09-12T14:43:50;8.32;;;3.50;;
76693;SDS011;69667;52.136;5.424;2023-09-12T14:46:18;8.82;;;3.55;;
76693;SDS011;69667;52.136;5.424;2023-09-12T14:48:47;5.97;;;3.05;;
76693;SDS011;69667;52.136;5.424;2023-09-12T14:51:26;7.00;;;3.33;;
76693;SDS011;69667;52.136;5.424;2023-09-12T14:54:01;5.35;;;3.08;;
76693;SDS011;69667;52.136;5.424;2023-09-12T14:56:30;7.95;;;4.10;;
76693;SDS011;69667;52.136;5.424;2023-09-12T14:59:00;5.72;;;2.92;;
76693;SDS011;69667;52.136;5.424;2023-09-12T15:01:29;6.30;;;3.22;;
76693;SDS011;69667;52.136;5.424;2023-09-12T15:03:58;7.03;;;3.83;;
76693;SDS011;69667;52.136;5.424;2023-09-12T15:06:27;7.55;;;2.95;;
76693;SDS011;69667;52.136;5.424;2023-09-12T15:09:00;7.85;;;3.58;;
76693;SDS011;69667;52.136;5.424;2023-09-12T15:11:28;7.50;;;3.58;;
76693;SDS011;69667;52.136;5.424;2023-09-12T15:13:58;9.38;;;4.13;;
76693;SDS011;69667;52.136;5.424;2023-09-12T15:16:26;6.85;;;2.72;;
76693;SDS011;69667;52.136;5.424;2023-09-12T15:19:01;8.10;;;3.72;;
76693;SDS011;69667;52.136;5.424;2023-09-12T15:21:30;6.53;;;3.67;;
76693;SDS011;69667;52.136;5.424;2023-09-12T15:23:58;9.10;;;3.25;;
76693;SDS011;69667;52.136;5.424;2023-09-12T15:28:55;8.85;;;3.20;;
76693;SDS011;69667;52.136;5.424;2023-09-12T15:31:28;6.32;;;3.08;;
76693;SDS011;69667;52.136;5.424;2023-09-12T15:33:57;6.35;;;2.42;;
76693;SDS011;69667;52.136;5.424;2023-09-12T15:36:25;4.75;;;2.45;;
76693;SDS011;69667;52.136;5.424;2023-09-12T15:38:53;5.30;;;2.30;;
76693;SDS011;69667;52.136;5.424;2023-09-12T15:41:23;6.40;;;2.38;;
76693;SDS011;69667;52.136;5.424;2023-09-12T15:43:52;5.10;;;1.80;;
76693;SDS011;69667;52.136;5.424;2023-09-12T15:46:37;4.32;;;2.10;;